sensor_id;sensor_type;location;lat;lon;timestamp;P1;durP1;ratioP1;P2;durP2;ratioP2
32347;SDS011;18821;44.800;10.326;2024-03-22T00:01:47;134.82;;;68.85;;
32347;SDS011;18821;44.800;10.326;2024-03-22T00:04:13;145.35;;;70.13;;
32347;SDS011;18821;44.800;10.326;2024-03-22T00:06:43;149.52;;;72.85;;
32347;SDS011;18821;44.800;10.326;2024-03-22T00:09:10;136.82;;;68.55;;
32347;SDS011;18821;44.800;10.326;2024-03-22T00:11:36;148.07;;;72.38;;
32347;SDS011;18821;44.800;10.326;2024-03-22T00:14:03;132.52;;;67.82;;
32347;SDS011;18821;44.800;10.326;2024-03-22T00:16:29;147.60;;;71.75;;
32347;SDS011;18821;44.800;10.326;2024-03-22T00:18:55;141.32;;;69.35;;
32347;SDS011;18821;44.800;10.326;2024-03-22T00:21:21;141.10;;;72.78;;
32347;SDS011;18821;44.800;10.326;2024-03-22T00:23:48;148.43;;;71.57;;
32347;SDS011;18821;44.800;10.326;2024-03-22T00:26:14;148.02;;;72.13;;
32347;SDS011;18821;44.800;10.326;2024-03-22T00:28:40;144.57;;;70.28;;
32347;SDS011;18821;44.800;10.326;2024-03-22T00:31:06;134.88;;;68.78;;
32347;SDS011;18821;44.800;10.326;2024-03-22T00:33:34;138.18;;;68.72;;
32347;SDS011;18821;44.800;10.326;2024-03-22T00:36:00;133.10;;;69.97;;
32347;SDS011;18821;44.800;10.326;2024-03-22T00:38:25;136.20;;;68.50;;
32347;SDS011;18821;44.800;10.326;2024-03-22T00:40:51;138.68;;;72.75;;
32347;SDS011;18821;44.800;10.326;2024-03-22T00:43:17;135.13;;;67.90;;
32347;SDS011;18821;44.800;10.326;2024-03-22T00:45:43;131.32;;;67.72;;
32347;SDS011;18821;44.800;10.326;2024-03-22T00:48:09;133.60;;;64.13;;
32347;SDS011;18821;44.800;10.326;2024-03-22T00:50:35;133.65;;;65.80;;
32347;SDS011;18821;44.800;10.326;2024-03-22T00:53:01;137.77;;;66.88;;
32347;SDS011;18821;44.800;10.326;2024-03-22T00:55:28;140.30;;;69.60;;
32347;SDS011;18821;44.800;10.326;2024-03-22T00:57:54;139.57;;;70.20;;
32347;SDS011;18821;44.800;10.326;2024-03-22T01:00:20;134.90;;;67.93;;
32347;SDS011;18821;44.800;10.326;2024-03-22T01:02:46;139.70;;;69.32;;
32347;SDS011;18821;44.800;10.326;2024-03-22T01:05:12;126.30;;;65.60;;
32347;SDS011;18821;44.800;10.326;2024-03-22T01:07:38;132.00;;;66.20;;
32347;SDS011;18821;44.800;10.326;2024-03-22T01:10:04;140.55;;;68.18;;
32347;SDS011;18821;44.800;10.326;2024-03-22T01:12:30;131.00;;;65.63;;
32347;SDS011;18821;44.800;10.326;2024-03-22T01:14:56;133.88;;;66.50;;
32347;SDS011;18821;44.800;10.326;2024-03-22T01:17:22;138.52;;;68.03;;
32347;SDS011;18821;44.800;10.326;2024-03-22T01:19:48;135.40;;;66.05;;
32347;SDS011;18821;44.800;10.326;2024-03-22T01:22:14;125.28;;;62.67;;
32347;SDS011;18821;44.800;10.326;2024-03-22T01:24:40;126.15;;;60.45;;
32347;SDS011;18821;44.800;10.326;2024-03-22T01:27:06;118.70;;;61.55;;
32347;SDS011;18821;44.800;10.326;2024-03-22T01:29:32;124.05;;;61.05;;
32347;SDS011;18821;44.800;10.326;2024-03-22T01:31:58;130.43;;;63.75;;
32347;SDS011;18821;44.800;10.326;2024-03-22T01:34:24;126.55;;;63.10;;
32347;SDS011;18821;44.800;10.326;2024-03-22T01:36:50;133.80;;;62.45;;
32347;SDS011;18821;44.800;10.326;2024-03-22T01:39:17;125.95;;;64.07;;
32347;SDS011;18821;44.800;10.326;2024-03-22T01:41:46;127.07;;;64.35;;
32347;SDS011;18821;44.800;10.326;2024-03-22T01:44:13;138.70;;;68.43;;
32347;SDS011;18821;44.800;10.326;2024-03-22T01:46:39;141.98;;;67.15;;
32347;SDS011;18821;44.800;10.326;2024-03-22T01:49:07;136.52;;;66.93;;
32347;SDS011;18821;44.800;10.326;2024-03-22T01:51:39;141.00;;;66.82;;
32347;SDS011;18821;44.800;10.326;2024-03-22T01:54:05;142.88;;;69.47;;
32347;SDS011;18821;44.800;10.326;2024-03-22T01:56:36;149.48;;;67.70;;
32347;SDS011;18821;44.800;10.326;2024-03-22T01:59:03;147.10;;;68.53;;
32347;SDS011;18821;44.800;10.326;2024-03-22T02:01:30;139.57;;;67.93;;
32347;SDS011;18821;44.800;10.326;2024-03-22T02:03:56;149.35;;;69.00;;
32347;SDS011;18821;44.800;10.326;2024-03-22T02:06:22;138.40;;;68.22;;
32347;SDS011;18821;44.800;10.326;2024-03-22T02:08:47;152.27;;;72.72;;
32347;SDS011;18821;44.800;10.326;2024-03-22T02:11:13;147.32;;;69.03;;
32347;SDS011;18821;44.800;10.326;2024-03-22T02:13:39;144.13;;;70.55;;
32347;SDS011;18821;44.800;10.326;2024-03-22T02:16:05;144.57;;;70.75;;
32347;SDS011;18821;44.800;10.326;2024-03-22T02:18:31;132.40;;;63.80;;
32347;SDS011;18821;44.800;10.326;2024-03-22T02:20:57;124.68;;;60.72;;
32347;SDS011;18821;44.800;10.326;2024-03-22T02:23:32;120.63;;;61.05;;
32347;SDS011;18821;44.800;10.326;2024-03-22T02:25:59;127.45;;;63.22;;
32347;SDS011;18821;44.800;10.326;2024-03-22T02:28:25;125.25;;;62.55;;
32347;SDS011;18821;44.800;10.326;2024-03-22T02:30:51;133.00;;;65.93;;
32347;SDS011;18821;44.800;10.326;2024-03-22T02:33:17;128.82;;;62.05;;
32347;SDS011;18821;44.800;10.326;2024-03-22T02:35:43;121.90;;;59.08;;
32347;SDS011;18821;44.800;10.326;2024-03-22T02:38:09;101.55;;;52.88;;
32347;SDS011;18821;44.800;10.326;2024-03-22T02:40:35;104.60;;;51.72;;
32347;SDS011;18821;44.800;10.326;2024-03-22T02:43:00;104.10;;;52.35;;
32347;SDS011;18821;44.800;10.326;2024-03-22T02:45:26;111.90;;;53.97;;
32347;SDS011;18821;44.800;10.326;2024-03-22T02:47:52;109.00;;;54.95;;
32347;SDS011;18821;44.800;10.326;2024-03-22T02:50:18;104.45;;;53.30;;
32347;SDS011;18821;44.800;10.326;2024-03-22T02:52:44;102.18;;;51.58;;
32347;SDS011;18821;44.800;10.326;2024-03-22T02:55:09;93.07;;;47.10;;
32347;SDS011;18821;44.800;10.326;2024-03-22T02:57:35;80.38;;;42.67;;
32347;SDS011;18821;44.800;10.326;2024-03-22T03:00:01;80.53;;;43.42;;
32347;SDS011;18821;44.800;10.326;2024-03-22T03:02:28;75.82;;;39.78;;
32347;SDS011;18821;44.800;10.326;2024-03-22T03:04:54;75.88;;;40.78;;
32347;SDS011;18821;44.800;10.326;2024-03-22T03:07:20;75.60;;;38.90;;
32347;SDS011;18821;44.800;10.326;2024-03-22T03:09:46;70.22;;;36.45;;
32347;SDS011;18821;44.800;10.326;2024-03-22T03:12:12;69.93;;;36.83;;
32347;SDS011;18821;44.800;10.326;2024-03-22T03:14:37;69.88;;;36.67;;
32347;SDS011;18821;44.800;10.326;2024-03-22T03:17:03;65.47;;;36.03;;
32347;SDS011;18821;44.800;10.326;2024-03-22T03:19:29;67.25;;;33.55;;
32347;SDS011;18821;44.800;10.326;2024-03-22T03:21:55;66.32;;;32.58;;
32347;SDS011;18821;44.800;10.326;2024-03-22T03:24:21;58.72;;;30.73;;
32347;SDS011;18821;44.800;10.326;2024-03-22T03:26:47;57.63;;;31.35;;
32347;SDS011;18821;44.800;10.326;2024-03-22T03:29:13;57.80;;;29.75;;
32347;SDS011;18821;44.800;10.326;2024-03-22T03:31:39;54.00;;;29.33;;
32347;SDS011;18821;44.800;10.326;2024-03-22T03:34:04;59.30;;;30.73;;
32347;SDS011;18821;44.800;10.326;2024-03-22T03:36:30;58.72;;;30.73;;
32347;SDS011;18821;44.800;10.326;2024-03-22T03:38:56;55.80;;;30.23;;
32347;SDS011;18821;44.800;10.326;2024-03-22T03:41:22;54.20;;;29.38;;
32347;SDS011;18821;44.800;10.326;2024-03-22T03:43:48;58.40;;;31.25;;
32347;SDS011;18821;44.800;10.326;2024-03-22T03:46:14;58.17;;;28.60;;
32347;SDS011;18821;44.800;10.326;2024-03-22T03:48:40;51.95;;;27.58;;
32347;SDS011;18821;44.800;10.326;2024-03-22T03:51:05;50.40;;;26.13;;
32347;SDS011;18821;44.800;10.326;2024-03-22T03:53:31;52.58;;;28.45;;
32347;SDS011;18821;44.800;10.326;2024-03-22T03:55:57;53.08;;;26.30;;
32347;SDS011;18821;44.800;10.326;2024-03-22T03:58:23;53.70;;;26.98;;
32347;SDS011;18821;44.800;10.326;2024-03-22T04:00:49;48.17;;;26.70;;
32347;SDS011;18821;44.800;10.326;2024-03-22T04:03:15;52.75;;;28.15;;
32347;SDS011;18821;44.800;10.326;2024-03-22T04:05:40;49.38;;;25.55;;
32347;SDS011;18821;44.800;10.326;2024-03-22T04:08:06;48.47;;;26.27;;
32347;SDS011;18821;44.800;10.326;2024-03-22T04:10:32;48.72;;;27.83;;
32347;SDS011;18821;44.800;10.326;2024-03-22T04:12:58;49.85;;;26.92;;
32347;SDS011;18821;44.800;10.326;2024-03-22T04:15:24;50.20;;;26.67;;
32347;SDS011;18821;44.800;10.326;2024-03-22T04:17:50;48.00;;;26.35;;
32347;SDS011;18821;44.800;10.326;2024-03-22T04:20:16;49.38;;;26.10;;
32347;SDS011;18821;44.800;10.326;2024-03-22T04:22:42;52.70;;;27.60;;
32347;SDS011;18821;44.800;10.326;2024-03-22T04:25:08;53.22;;;28.38;;
32347;SDS011;18821;44.800;10.326;2024-03-22T04:27:37;47.03;;;26.73;;
32347;SDS011;18821;44.800;10.326;2024-03-22T04:30:03;51.53;;;27.17;;
32347;SDS011;18821;44.800;10.326;2024-03-22T04:32:29;52.80;;;28.23;;
32347;SDS011;18821;44.800;10.326;2024-03-22T04:34:55;48.33;;;26.30;;
32347;SDS011;18821;44.800;10.326;2024-03-22T04:37:21;55.67;;;27.20;;
32347;SDS011;18821;44.800;10.326;2024-03-22T04:39:46;55.08;;;26.92;;
32347;SDS011;18821;44.800;10.326;2024-03-22T04:42:12;51.72;;;26.58;;
32347;SDS011;18821;44.800;10.326;2024-03-22T04:44:38;53.55;;;27.00;;
32347;SDS011;18821;44.800;10.326;2024-03-22T04:47:04;51.90;;;27.88;;
32347;SDS011;18821;44.800;10.326;2024-03-22T04:49:30;51.72;;;27.77;;
32347;SDS011;18821;44.800;10.326;2024-03-22T04:51:56;53.20;;;26.10;;
32347;SDS011;18821;44.800;10.326;2024-03-22T04:54:22;56.40;;;27.75;;
32347;SDS011;18821;44.800;10.326;2024-03-22T04:56:48;49.35;;;26.23;;
32347;SDS011;18821;44.800;10.326;2024-03-22T04:59:13;51.53;;;26.10;;
32347;SDS011;18821;44.800;10.326;2024-03-22T05:01:39;50.58;;;27.52;;
32347;SDS011;18821;44.800;10.326;2024-03-22T05:04:05;53.50;;;27.58;;
32347;SDS011;18821;44.800;10.326;2024-03-22T05:06:31;49.67;;;25.83;;
32347;SDS011;18821;44.800;10.326;2024-03-22T05:08:57;52.47;;;26.33;;
32347;SDS011;18821;44.800;10.326;2024-03-22T05:11:23;49.08;;;26.25;;
32347;SDS011;18821;44.800;10.326;2024-03-22T05:13:49;45.17;;;24.95;;
32347;SDS011;18821;44.800;10.326;2024-03-22T05:16:15;49.20;;;26.42;;
32347;SDS011;18821;44.800;10.326;2024-03-22T05:18:41;58.08;;;28.17;;
32347;SDS011;18821;44.800;10.326;2024-03-22T05:21:08;51.65;;;25.38;;
32347;SDS011;18821;44.800;10.326;2024-03-22T05:23:34;49.88;;;24.02;;
32347;SDS011;18821;44.800;10.326;2024-03-22T05:26:00;55.50;;;26.00;;
32347;SDS011;18821;44.800;10.326;2024-03-22T05:28:26;53.92;;;26.95;;
32347;SDS011;18821;44.800;10.326;2024-03-22T05:30:52;50.97;;;27.02;;
32347;SDS011;18821;44.800;10.326;2024-03-22T05:33:17;52.30;;;27.90;;
32347;SDS011;18821;44.800;10.326;2024-03-22T05:35:43;53.85;;;27.90;;
32347;SDS011;18821;44.800;10.326;2024-03-22T05:38:09;57.88;;;28.92;;
32347;SDS011;18821;44.800;10.326;2024-03-22T05:40:38;63.13;;;31.48;;
32347;SDS011;18821;44.800;10.326;2024-03-22T05:43:04;63.58;;;30.63;;
32347;SDS011;18821;44.800;10.326;2024-03-22T05:45:30;56.60;;;29.58;;
32347;SDS011;18821;44.800;10.326;2024-03-22T05:47:56;60.58;;;30.65;;
32347;SDS011;18821;44.800;10.326;2024-03-22T05:50:21;60.47;;;30.40;;
32347;SDS011;18821;44.800;10.326;2024-03-22T05:52:47;55.75;;;29.10;;
32347;SDS011;18821;44.800;10.326;2024-03-22T05:55:13;53.00;;;28.60;;
32347;SDS011;18821;44.800;10.326;2024-03-22T05:57:39;58.15;;;27.77;;
32347;SDS011;18821;44.800;10.326;2024-03-22T06:00:05;55.55;;;27.45;;
32347;SDS011;18821;44.800;10.326;2024-03-22T06:02:34;57.90;;;28.20;;
32347;SDS011;18821;44.800;10.326;2024-03-22T06:05:00;52.95;;;25.95;;
32347;SDS011;18821;44.800;10.326;2024-03-22T06:07:26;47.65;;;26.08;;
32347;SDS011;18821;44.800;10.326;2024-03-22T06:09:52;47.00;;;25.70;;
32347;SDS011;18821;44.800;10.326;2024-03-22T06:12:18;39.95;;;21.77;;
32347;SDS011;18821;44.800;10.326;2024-03-22T06:14:44;43.42;;;21.75;;
32347;SDS011;18821;44.800;10.326;2024-03-22T06:17:12;32.13;;;15.98;;
32347;SDS011;18821;44.800;10.326;2024-03-22T06:19:37;34.75;;;17.65;;
32347;SDS011;18821;44.800;10.326;2024-03-22T06:22:05;27.80;;;15.85;;
32347;SDS011;18821;44.800;10.326;2024-03-22T06:24:32;28.25;;;16.95;;
32347;SDS011;18821;44.800;10.326;2024-03-22T06:26:57;29.00;;;16.05;;
32347;SDS011;18821;44.800;10.326;2024-03-22T06:29:23;24.02;;;16.60;;
32347;SDS011;18821;44.800;10.326;2024-03-22T06:31:49;29.30;;;16.33;;
32347;SDS011;18821;44.800;10.326;2024-03-22T06:34:15;25.98;;;14.82;;
32347;SDS011;18821;44.800;10.326;2024-03-22T06:36:41;24.20;;;14.65;;
32347;SDS011;18821;44.800;10.326;2024-03-22T06:39:08;25.92;;;14.13;;
32347;SDS011;18821;44.800;10.326;2024-03-22T06:41:35;31.77;;;14.85;;
32347;SDS011;18821;44.800;10.326;2024-03-22T06:44:01;31.17;;;15.43;;
32347;SDS011;18821;44.800;10.326;2024-03-22T06:46:27;34.60;;;15.52;;
32347;SDS011;18821;44.800;10.326;2024-03-22T06:48:53;27.65;;;14.75;;
32347;SDS011;18821;44.800;10.326;2024-03-22T06:51:19;34.40;;;15.63;;
32347;SDS011;18821;44.800;10.326;2024-03-22T06:53:45;27.92;;;13.55;;
32347;SDS011;18821;44.800;10.326;2024-03-22T06:56:13;26.00;;;14.68;;
32347;SDS011;18821;44.800;10.326;2024-03-22T06:58:39;30.15;;;15.40;;
32347;SDS011;18821;44.800;10.326;2024-03-22T07:01:05;24.13;;;13.68;;
32347;SDS011;18821;44.800;10.326;2024-03-22T07:03:31;27.10;;;15.45;;
32347;SDS011;18821;44.800;10.326;2024-03-22T07:05:57;26.02;;;15.48;;
32347;SDS011;18821;44.800;10.326;2024-03-22T07:08:23;41.40;;;17.40;;
32347;SDS011;18821;44.800;10.326;2024-03-22T07:10:50;32.00;;;14.73;;
32347;SDS011;18821;44.800;10.326;2024-03-22T07:13:18;33.95;;;15.90;;
32347;SDS011;18821;44.800;10.326;2024-03-22T07:15:44;30.15;;;16.50;;
32347;SDS011;18821;44.800;10.326;2024-03-22T07:18:11;33.10;;;17.55;;
32347;SDS011;18821;44.800;10.326;2024-03-22T07:20:37;32.22;;;16.73;;
32347;SDS011;18821;44.800;10.326;2024-03-22T07:23:03;33.88;;;16.75;;
32347;SDS011;18821;44.800;10.326;2024-03-22T07:25:30;36.03;;;18.25;;
32347;SDS011;18821;44.800;10.326;2024-03-22T07:27:56;33.70;;;18.27;;
32347;SDS011;18821;44.800;10.326;2024-03-22T07:30:22;31.73;;;17.88;;
32347;SDS011;18821;44.800;10.326;2024-03-22T07:32:48;34.92;;;17.95;;
32347;SDS011;18821;44.800;10.326;2024-03-22T07:35:14;29.33;;;17.48;;
32347;SDS011;18821;44.800;10.326;2024-03-22T07:37:40;36.53;;;18.17;;
32347;SDS011;18821;44.800;10.326;2024-03-22T07:40:06;31.30;;;18.10;;
32347;SDS011;18821;44.800;10.326;2024-03-22T07:42:32;40.35;;;17.83;;
32347;SDS011;18821;44.800;10.326;2024-03-22T07:44:58;45.30;;;17.92;;
32347;SDS011;18821;44.800;10.326;2024-03-22T07:47:24;31.77;;;17.67;;
32347;SDS011;18821;44.800;10.326;2024-03-22T07:49:50;29.88;;;17.33;;
32347;SDS011;18821;44.800;10.326;2024-03-22T07:52:16;29.10;;;16.35;;
32347;SDS011;18821;44.800;10.326;2024-03-22T07:54:42;28.05;;;16.63;;
32347;SDS011;18821;44.800;10.326;2024-03-22T07:57:08;32.80;;;16.77;;
32347;SDS011;18821;44.800;10.326;2024-03-22T07:59:36;26.58;;;15.93;;
32347;SDS011;18821;44.800;10.326;2024-03-22T08:02:01;31.50;;;17.33;;
32347;SDS011;18821;44.800;10.326;2024-03-22T08:04:28;26.38;;;15.93;;
32347;SDS011;18821;44.800;10.326;2024-03-22T08:06:54;25.48;;;16.05;;
32347;SDS011;18821;44.800;10.326;2024-03-22T08:09:20;33.50;;;18.38;;
32347;SDS011;18821;44.800;10.326;2024-03-22T08:11:46;31.10;;;17.45;;
32347;SDS011;18821;44.800;10.326;2024-03-22T08:14:13;39.22;;;18.83;;
32347;SDS011;18821;44.800;10.326;2024-03-22T08:16:39;30.65;;;16.38;;
32347;SDS011;18821;44.800;10.326;2024-03-22T08:19:05;33.63;;;17.60;;
32347;SDS011;18821;44.800;10.326;2024-03-22T08:21:31;32.88;;;18.58;;
32347;SDS011;18821;44.800;10.326;2024-03-22T08:23:57;30.55;;;18.85;;
32347;SDS011;18821;44.800;10.326;2024-03-22T08:26:22;32.60;;;17.75;;
32347;SDS011;18821;44.800;10.326;2024-03-22T08:28:48;32.55;;;18.83;;
32347;SDS011;18821;44.800;10.326;2024-03-22T08:31:14;34.80;;;20.17;;
32347;SDS011;18821;44.800;10.326;2024-03-22T08:33:40;33.95;;;20.92;;
32347;SDS011;18821;44.800;10.326;2024-03-22T08:36:06;35.22;;;21.95;;
32347;SDS011;18821;44.800;10.326;2024-03-22T08:38:32;32.80;;;22.15;;
32347;SDS011;18821;44.800;10.326;2024-03-22T08:40:58;38.70;;;21.90;;
32347;SDS011;18821;44.800;10.326;2024-03-22T08:43:24;33.05;;;22.25;;
32347;SDS011;18821;44.800;10.326;2024-03-22T08:45:53;34.40;;;23.55;;
32347;SDS011;18821;44.800;10.326;2024-03-22T08:48:18;35.50;;;22.67;;
32347;SDS011;18821;44.800;10.326;2024-03-22T08:50:44;35.03;;;23.23;;
32347;SDS011;18821;44.800;10.326;2024-03-22T08:53:10;35.80;;;23.50;;
32347;SDS011;18821;44.800;10.326;2024-03-22T08:55:36;35.90;;;23.38;;
32347;SDS011;18821;44.800;10.326;2024-03-22T08:58:02;35.88;;;24.38;;
32347;SDS011;18821;44.800;10.326;2024-03-22T09:00:29;41.15;;;25.55;;
32347;SDS011;18821;44.800;10.326;2024-03-22T09:02:55;42.47;;;25.95;;
32347;SDS011;18821;44.800;10.326;2024-03-22T09:05:21;39.20;;;26.58;;
32347;SDS011;18821;44.800;10.326;2024-03-22T09:07:47;44.30;;;27.52;;
32347;SDS011;18821;44.800;10.326;2024-03-22T09:10:13;39.03;;;26.13;;
32347;SDS011;18821;44.800;10.326;2024-03-22T09:12:39;44.40;;;28.70;;
32347;SDS011;18821;44.800;10.326;2024-03-22T09:15:06;45.97;;;29.48;;
32347;SDS011;18821;44.800;10.326;2024-03-22T09:17:32;43.08;;;28.23;;
32347;SDS011;18821;44.800;10.326;2024-03-22T09:19:58;48.47;;;31.55;;
32347;SDS011;18821;44.800;10.326;2024-03-22T09:22:24;51.13;;;31.80;;
32347;SDS011;18821;44.800;10.326;2024-03-22T09:24:50;52.05;;;32.30;;
32347;SDS011;18821;44.800;10.326;2024-03-22T09:27:16;51.00;;;31.98;;
32347;SDS011;18821;44.800;10.326;2024-03-22T09:29:42;46.00;;;31.05;;
32347;SDS011;18821;44.800;10.326;2024-03-22T09:32:08;51.53;;;31.95;;
32347;SDS011;18821;44.800;10.326;2024-03-22T09:34:34;53.53;;;34.67;;
32347;SDS011;18821;44.800;10.326;2024-03-22T09:37:00;64.63;;;36.20;;
32347;SDS011;18821;44.800;10.326;2024-03-22T09:39:27;53.85;;;33.75;;
32347;SDS011;18821;44.800;10.326;2024-03-22T09:41:53;53.22;;;32.17;;
32347;SDS011;18821;44.800;10.326;2024-03-22T09:44:22;50.72;;;32.97;;
32347;SDS011;18821;44.800;10.326;2024-03-22T09:46:49;57.22;;;35.75;;
32347;SDS011;18821;44.800;10.326;2024-03-22T09:49:16;57.08;;;35.53;;
32347;SDS011;18821;44.800;10.326;2024-03-22T09:51:43;57.10;;;36.08;;
32347;SDS011;18821;44.800;10.326;2024-03-22T09:54:12;57.45;;;36.70;;
32347;SDS011;18821;44.800;10.326;2024-03-22T09:56:38;55.38;;;35.08;;
32347;SDS011;18821;44.800;10.326;2024-03-22T09:59:07;57.42;;;33.53;;
32347;SDS011;18821;44.800;10.326;2024-03-22T10:01:34;55.75;;;36.20;;
32347;SDS011;18821;44.800;10.326;2024-03-22T10:04:00;61.28;;;35.67;;
32347;SDS011;18821;44.800;10.326;2024-03-22T10:06:26;60.72;;;34.20;;
32347;SDS011;18821;44.800;10.326;2024-03-22T10:08:54;52.78;;;32.92;;
32347;SDS011;18821;44.800;10.326;2024-03-22T10:11:19;58.92;;;35.22;;
32347;SDS011;18821;44.800;10.326;2024-03-22T10:13:46;54.03;;;34.33;;
32347;SDS011;18821;44.800;10.326;2024-03-22T10:16:16;51.40;;;32.35;;
32347;SDS011;18821;44.800;10.326;2024-03-22T10:18:44;53.05;;;34.67;;
32347;SDS011;18821;44.800;10.326;2024-03-22T10:21:10;51.05;;;30.98;;
32347;SDS011;18821;44.800;10.326;2024-03-22T10:23:36;47.60;;;30.80;;
32347;SDS011;18821;44.800;10.326;2024-03-22T10:26:02;52.67;;;35.25;;
32347;SDS011;18821;44.800;10.326;2024-03-22T10:28:29;51.70;;;33.05;;
32347;SDS011;18821;44.800;10.326;2024-03-22T10:30:55;49.38;;;32.70;;
32347;SDS011;18821;44.800;10.326;2024-03-22T10:33:21;51.67;;;31.85;;
32347;SDS011;18821;44.800;10.326;2024-03-22T10:35:54;52.70;;;32.63;;
32347;SDS011;18821;44.800;10.326;2024-03-22T10:38:21;58.60;;;35.03;;
32347;SDS011;18821;44.800;10.326;2024-03-22T10:40:47;53.13;;;33.72;;
32347;SDS011;18821;44.800;10.326;2024-03-22T10:43:14;53.72;;;32.75;;
32347;SDS011;18821;44.800;10.326;2024-03-22T10:45:41;55.28;;;34.53;;
32347;SDS011;18821;44.800;10.326;2024-03-22T10:48:10;53.42;;;32.90;;
32347;SDS011;18821;44.800;10.326;2024-03-22T10:50:40;57.58;;;36.13;;
32347;SDS011;18821;44.800;10.326;2024-03-22T10:53:09;59.50;;;34.72;;
32347;SDS011;18821;44.800;10.326;2024-03-22T10:55:42;53.53;;;35.22;;
32347;SDS011;18821;44.800;10.326;2024-03-22T10:58:43;60.55;;;36.17;;
32347;SDS011;18821;44.800;10.326;2024-03-22T11:01:04;61.05;;;34.78;;
32347;SDS011;18821;44.800;10.326;2024-03-22T11:03:30;59.10;;;34.88;;
32347;SDS011;18821;44.800;10.326;2024-03-22T11:05:58;58.35;;;37.40;;
32347;SDS011;18821;44.800;10.326;2024-03-22T11:08:25;63.83;;;38.13;;
32347;SDS011;18821;44.800;10.326;2024-03-22T11:10:52;62.67;;;36.78;;
32347;SDS011;18821;44.800;10.326;2024-03-22T11:13:20;61.20;;;35.10;;
32347;SDS011;18821;44.800;10.326;2024-03-22T11:15:49;59.63;;;35.55;;
32347;SDS011;18821;44.800;10.326;2024-03-22T11:18:16;61.55;;;36.35;;
32347;SDS011;18821;44.800;10.326;2024-03-22T11:20:43;58.45;;;34.42;;
32347;SDS011;18821;44.800;10.326;2024-03-22T11:23:11;55.42;;;35.03;;
32347;SDS011;18821;44.800;10.326;2024-03-22T11:25:38;59.42;;;35.85;;
32347;SDS011;18821;44.800;10.326;2024-03-22T11:28:04;55.42;;;33.88;;
32347;SDS011;18821;44.800;10.326;2024-03-22T11:30:30;57.17;;;34.60;;
32347;SDS011;18821;44.800;10.326;2024-03-22T11:33:00;58.30;;;35.20;;
32347;SDS011;18821;44.800;10.326;2024-03-22T11:35:27;54.80;;;34.80;;
32347;SDS011;18821;44.800;10.326;2024-03-22T11:37:53;56.63;;;35.95;;
32347;SDS011;18821;44.800;10.326;2024-03-22T11:40:19;56.22;;;33.42;;
32347;SDS011;18821;44.800;10.326;2024-03-22T11:42:46;57.55;;;35.45;;
32347;SDS011;18821;44.800;10.326;2024-03-22T11:45:14;50.20;;;31.38;;
32347;SDS011;18821;44.800;10.326;2024-03-22T11:47:43;52.22;;;30.95;;
32347;SDS011;18821;44.800;10.326;2024-03-22T11:50:10;55.75;;;34.90;;
32347;SDS011;18821;44.800;10.326;2024-03-22T11:52:40;50.83;;;32.13;;
32347;SDS011;18821;44.800;10.326;2024-03-22T11:55:07;51.35;;;30.98;;
32347;SDS011;18821;44.800;10.326;2024-03-22T11:57:33;56.55;;;32.42;;
32347;SDS011;18821;44.800;10.326;2024-03-22T12:00:00;51.70;;;29.77;;
32347;SDS011;18821;44.800;10.326;2024-03-22T12:02:37;44.92;;;28.17;;
32347;SDS011;18821;44.800;10.326;2024-03-22T12:05:07;46.35;;;27.33;;
32347;SDS011;18821;44.800;10.326;2024-03-22T12:07:33;48.55;;;29.48;;
32347;SDS011;18821;44.800;10.326;2024-03-22T12:09:59;43.15;;;26.90;;
32347;SDS011;18821;44.800;10.326;2024-03-22T12:12:25;50.35;;;31.17;;
32347;SDS011;18821;44.800;10.326;2024-03-22T12:14:52;49.97;;;30.60;;
32347;SDS011;18821;44.800;10.326;2024-03-22T12:17:18;37.10;;;23.35;;
32347;SDS011;18821;44.800;10.326;2024-03-22T12:19:44;34.25;;;21.85;;
32347;SDS011;18821;44.800;10.326;2024-03-22T12:22:10;36.80;;;22.30;;
32347;SDS011;18821;44.800;10.326;2024-03-22T12:24:36;39.63;;;22.55;;
32347;SDS011;18821;44.800;10.326;2024-03-22T12:27:02;38.20;;;22.10;;
32347;SDS011;18821;44.800;10.326;2024-03-22T12:29:28;35.75;;;22.83;;
32347;SDS011;18821;44.800;10.326;2024-03-22T12:31:54;32.50;;;20.92;;
32347;SDS011;18821;44.800;10.326;2024-03-22T12:34:20;40.17;;;24.60;;
32347;SDS011;18821;44.800;10.326;2024-03-22T12:36:46;38.45;;;23.27;;
32347;SDS011;18821;44.800;10.326;2024-03-22T12:39:12;36.30;;;22.48;;
32347;SDS011;18821;44.800;10.326;2024-03-22T12:41:37;36.17;;;20.73;;
32347;SDS011;18821;44.800;10.326;2024-03-22T12:44:03;30.50;;;20.50;;
32347;SDS011;18821;44.800;10.326;2024-03-22T12:46:29;31.50;;;18.25;;
32347;SDS011;18821;44.800;10.326;2024-03-22T12:48:55;28.33;;;17.90;;
32347;SDS011;18821;44.800;10.326;2024-03-22T12:51:21;29.83;;;18.13;;
32347;SDS011;18821;44.800;10.326;2024-03-22T12:53:47;29.48;;;17.98;;
32347;SDS011;18821;44.800;10.326;2024-03-22T12:56:13;30.13;;;18.88;;
32347;SDS011;18821;44.800;10.326;2024-03-22T12:58:39;29.50;;;17.33;;
32347;SDS011;18821;44.800;10.326;2024-03-22T13:01:05;29.60;;;19.55;;
32347;SDS011;18821;44.800;10.326;2024-03-22T13:03:31;29.30;;;18.98;;
32347;SDS011;18821;44.800;10.326;2024-03-22T13:05:57;29.88;;;17.73;;
32347;SDS011;18821;44.800;10.326;2024-03-22T13:08:23;29.67;;;16.60;;
32347;SDS011;18821;44.800;10.326;2024-03-22T13:10:49;28.00;;;18.67;;
32347;SDS011;18821;44.800;10.326;2024-03-22T13:13:16;35.45;;;19.92;;
32347;SDS011;18821;44.800;10.326;2024-03-22T13:15:44;26.98;;;16.75;;
32347;SDS011;18821;44.800;10.326;2024-03-22T13:18:12;28.60;;;17.58;;
32347;SDS011;18821;44.800;10.326;2024-03-22T13:20:38;27.95;;;17.70;;
32347;SDS011;18821;44.800;10.326;2024-03-22T13:23:04;28.38;;;16.88;;
32347;SDS011;18821;44.800;10.326;2024-03-22T13:25:30;27.80;;;16.42;;
32347;SDS011;18821;44.800;10.326;2024-03-22T13:27:56;27.58;;;16.65;;
32347;SDS011;18821;44.800;10.326;2024-03-22T13:30:22;30.90;;;18.02;;
32347;SDS011;18821;44.800;10.326;2024-03-22T13:32:48;28.48;;;17.58;;
32347;SDS011;18821;44.800;10.326;2024-03-22T13:35:14;28.05;;;17.35;;
32347;SDS011;18821;44.800;10.326;2024-03-22T13:37:40;25.60;;;16.08;;
32347;SDS011;18821;44.800;10.326;2024-03-22T13:40:06;26.27;;;16.38;;
32347;SDS011;18821;44.800;10.326;2024-03-22T13:42:33;24.48;;;14.68;;
32347;SDS011;18821;44.800;10.326;2024-03-22T13:44:59;27.80;;;15.85;;
32347;SDS011;18821;44.800;10.326;2024-03-22T13:47:24;26.30;;;15.65;;
32347;SDS011;18821;44.800;10.326;2024-03-22T13:49:53;22.63;;;15.30;;
32347;SDS011;18821;44.800;10.326;2024-03-22T13:52:19;18.88;;;10.85;;
32347;SDS011;18821;44.800;10.326;2024-03-22T13:54:46;17.42;;;11.77;;
32347;SDS011;18821;44.800;10.326;2024-03-22T13:57:12;20.30;;;13.30;;
32347;SDS011;18821;44.800;10.326;2024-03-22T13:59:38;22.17;;;13.85;;
32347;SDS011;18821;44.800;10.326;2024-03-22T14:02:05;22.27;;;13.65;;